createdAt,value
2024-03-04T00:03:42.593Z,53.00
2024-03-04T00:08:47.803Z,52.25
2024-03-04T00:13:53.272Z,53.75
2024-03-04T00:18:58.536Z,55.00
2024-03-04T00:24:04.124Z,49.00
2024-03-04T00:29:09.680Z,55.00
2024-03-04T00:34:15.941Z,55.25
2024-03-04T00:39:22.313Z,55.00
2024-03-04T00:44:28.694Z,47.00
2024-03-04T00:49:34.011Z,49.25
2024-03-04T00:54:38.925Z,47.00
2024-03-04T00:59:44.987Z,46.25
2024-03-04T01:04:49.874Z,44.50
2024-03-04T01:09:55.842Z,38.25
2024-03-04T01:15:01.029Z,45.25
2024-03-04T01:20:07.452Z,41.00
2024-03-04T01:25:13.597Z,40.75
2024-03-04T01:30:18.677Z,38.50
2024-03-04T01:35:23.240Z,36.00
2024-03-04T01:40:28.209Z,34.50
2024-03-04T01:45:34.251Z,39.50
2024-03-04T01:50:41.491Z,32.50
2024-03-04T01:55:54.570Z,36.25
2024-03-04T02:01:02.486Z,45.25
2024-03-04T02:06:08.268Z,30.75
2024-03-04T02:11:14.881Z,37.25
2024-03-04T02:16:19.383Z,35.50
2024-03-04T02:21:24.771Z,46.00
2024-03-04T02:26:29.427Z,33.00
2024-03-04T02:31:34.036Z,37.75
2024-03-04T02:36:40.216Z,30.25
2024-03-04T02:41:44.772Z,35.50
2024-03-04T02:46:53.842Z,27.50
2024-03-04T02:52:01.224Z,30.75
2024-03-04T02:57:06.875Z,32.75
2024-03-04T03:02:11.470Z,35.25
2024-03-04T03:07:16.297Z,33.50
2024-03-04T03:12:21.133Z,32.25
2024-03-04T03:17:27.525Z,32.25
2024-03-04T03:22:33.194Z,32.25
2024-03-04T03:27:39.202Z,32.25
2024-03-04T03:32:44.368Z,30.75
2024-03-04T03:37:50.335Z,30.00
2024-03-04T03:42:55.334Z,31.75
2024-03-04T03:47:59.801Z,30.25
2024-03-04T03:53:04.597Z,30.50
2024-03-04T03:58:09.628Z,31.50
2024-03-04T04:03:14.351Z,31.00
2024-03-04T04:08:19.270Z,31.00
2024-03-04T04:13:24.503Z,34.25
2024-03-04T04:18:29.038Z,31.50
2024-03-04T04:23:33.438Z,34.25
2024-03-04T04:28:37.831Z,29.75
2024-03-04T04:33:43.329Z,34.75
2024-03-04T04:38:50.163Z,35.25
2024-03-04T04:43:56.003Z,32.25
2024-03-04T04:49:01.410Z,37.50
2024-03-04T04:54:06.811Z,32.50
2024-03-04T04:59:12.541Z,31.00
2024-03-04T05:04:32.313Z,28.25
2024-03-04T05:09:44.147Z,31.00
2024-03-04T05:14:49.794Z,25.25
2024-03-04T05:19:54.835Z,28.75
2024-03-04T05:25:00.929Z,29.00
2024-03-04T05:30:06.512Z,24.50
2024-03-04T05:35:13.041Z,27.25
2024-03-04T05:40:17.519Z,32.25
2024-03-04T05:45:21.922Z,25.25
2024-03-04T05:50:26.576Z,33.50
2024-03-04T05:55:30.965Z,25.75
2024-03-04T06:00:36.067Z,24.50
2024-03-04T06:05:40.421Z,23.25
2024-03-04T06:10:44.935Z,25.50
2024-03-04T06:15:49.495Z,25.75
2024-03-04T06:20:54.134Z,23.50
2024-03-04T06:25:58.527Z,23.75
2024-03-04T06:31:04.403Z,19.25
2024-03-04T06:36:08.936Z,23.00
2024-03-04T06:41:13.542Z,27.25
2024-03-04T06:46:17.978Z,25.00
2024-03-04T06:51:23.121Z,22.25
2024-03-04T06:56:27.599Z,24.25
2024-03-04T07:01:32.232Z,22.00
2024-03-04T07:06:36.664Z,27.00
2024-03-04T07:11:41.069Z,22.75
2024-03-04T07:16:45.496Z,18.75
2024-03-04T07:21:50.110Z,21.25
2024-03-04T07:26:54.592Z,19.50
2024-03-04T07:31:59.126Z,19.50
2024-03-04T07:37:03.581Z,21.25
2024-03-04T07:42:08.141Z,15.75
2024-03-04T07:47:12.530Z,16.50
2024-03-04T07:52:17.051Z,18.00
2024-03-04T07:57:24.138Z,16.50
2024-03-04T08:02:29.544Z,15.75
2024-03-04T08:07:34.308Z,17.50
2024-03-04T08:12:39.340Z,19.00
2024-03-04T08:17:54.116Z,16.25
2024-03-04T08:23:02.293Z,21.00
2024-03-04T08:28:16.514Z,15.00
2024-03-04T08:33:24.382Z,20.75
2024-03-04T08:38:30.441Z,20.25
2024-03-04T08:43:36.324Z,14.75
2024-03-04T08:48:41.901Z,16.50
2024-03-04T08:53:48.030Z,19.00
2024-03-04T08:58:54.670Z,17.00
2024-03-04T09:04:01.721Z,18.75
2024-03-04T09:09:07.730Z,15.50
2024-03-04T09:14:13.598Z,18.50
2024-03-04T09:19:19.421Z,19.00
2024-03-04T09:24:25.334Z,14.00
2024-03-04T09:29:31.307Z,15.00
2024-03-04T09:34:37.295Z,16.25
2024-03-04T09:39:43.632Z,19.25
2024-03-04T09:44:49.779Z,17.75
2024-03-04T09:49:56.137Z,20.00
2024-03-04T09:55:03.152Z,20.50
2024-03-04T10:00:10.452Z,16.75
2024-03-04T10:05:17.573Z,17.75
2024-03-04T10:10:23.517Z,19.25
2024-03-04T10:15:30.690Z,18.50
2024-03-04T10:20:36.284Z,25.25
2024-03-04T10:25:42.575Z,27.00
2024-03-04T10:30:48.937Z,18.00
2024-03-04T10:36:14.198Z,19.25
2024-03-04T10:41:23.574Z,18.25
2024-03-04T10:46:30.495Z,19.75
2024-03-04T10:51:36.674Z,19.50
2024-03-04T10:56:49.137Z,19.50
2024-03-04T11:01:56.128Z,19.25
2024-03-04T11:07:02.819Z,20.75
2024-03-04T11:12:09.207Z,18.00
2024-03-04T11:17:25.973Z,21.75
2024-03-04T11:22:32.289Z,21.50
2024-03-04T11:27:39.578Z,30.00
2024-03-04T11:32:45.587Z,26.75
2024-03-04T11:37:55.632Z,36.50
2024-03-04T11:43:01.286Z,27.00
2024-03-04T11:48:27.343Z,34.25
2024-03-04T11:53:33.746Z,42.50
2024-03-04T11:58:40.492Z,47.75
2024-03-04T12:03:55.800Z,56.75
2024-03-04T12:09:26.161Z,34.75
2024-03-04T12:14:29.943Z,33.75
2024-03-04T12:19:35.991Z,39.25
2024-03-04T12:24:42.011Z,44.50
2024-03-04T12:29:48.436Z,42.75
2024-03-04T12:34:56.858Z,36.25
2024-03-04T12:40:07.447Z,38.25
2024-03-04T12:45:13.150Z,41.25
2024-03-04T12:50:18.569Z,41.00
2024-03-04T12:55:24.990Z,38.50
2024-03-04T13:00:31.743Z,42.00
2024-03-04T13:05:38.076Z,45.75
2024-03-04T13:10:48.167Z,44.50
2024-03-04T13:15:57.525Z,48.00
2024-03-04T13:21:06.437Z,44.75
2024-03-04T13:26:12.196Z,44.75
2024-03-04T13:31:18.284Z,47.25
2024-03-04T13:36:24.348Z,46.00
2024-03-04T13:41:30.328Z,46.25
2024-03-04T13:46:36.479Z,48.75
2024-03-04T13:51:42.190Z,47.00
2024-03-04T13:56:48.775Z,38.25
2024-03-04T14:01:55.995Z,48.50
2024-03-04T14:07:03.128Z,45.50
2024-03-04T14:12:10.924Z,43.25
2024-03-04T14:17:16.941Z,47.50
2024-03-04T14:22:23.884Z,54.25
2024-03-04T14:27:30.233Z,41.25
2024-03-04T14:32:37.350Z,53.25
2024-03-04T14:37:43.845Z,48.25
2024-03-04T14:42:50.057Z,46.75
2024-03-04T14:47:55.946Z,49.50
2024-03-04T14:53:05.542Z,48.00
2024-03-04T14:58:12.983Z,46.50
2024-03-04T15:03:19.317Z,50.50
2024-03-04T15:08:25.054Z,52.25
2024-03-04T15:13:30.837Z,50.25
2024-03-04T15:18:40.840Z,47.75
2024-03-04T15:23:47.355Z,47.75
2024-03-04T15:28:54.531Z,52.50
2024-03-04T15:34:00.928Z,51.00
2024-03-04T15:39:13.667Z,52.25
2024-03-04T15:44:19.445Z,52.75
2024-03-04T15:49:25.746Z,54.50
2024-03-04T15:54:31.177Z,55.00
2024-03-04T15:59:37.382Z,51.25
2024-03-04T16:04:51.484Z,52.75
2024-03-04T16:09:56.989Z,57.00
2024-03-04T16:15:02.999Z,55.50
2024-03-04T16:20:12.934Z,56.75
2024-03-04T16:25:20.061Z,57.50
2024-03-04T16:30:25.636Z,54.00
2024-03-04T16:35:31.743Z,58.50
2024-03-04T16:40:38.016Z,59.50
2024-03-04T16:45:44.724Z,55.50
2024-03-04T16:50:50.849Z,56.00
2024-03-04T16:55:57.044Z,58.50
2024-03-04T17:01:04.194Z,56.00
2024-03-04T17:06:11.081Z,57.75
2024-03-04T17:11:17.131Z,54.50
2024-03-04T17:16:24.217Z,60.25
2024-03-04T17:21:30.710Z,60.75
2024-03-04T17:26:36.968Z,60.50
2024-03-04T17:31:44.057Z,57.75
2024-03-04T17:36:50.343Z,60.50
2024-03-04T17:41:57.092Z,57.75
2024-03-04T17:47:02.910Z,63.75
2024-03-04T17:52:08.782Z,66.75
2024-03-04T17:57:14.148Z,61.50
2024-03-04T18:02:22.648Z,62.00
2024-03-04T18:07:28.872Z,63.75
2024-03-04T18:12:34.880Z,62.50
2024-03-04T18:17:40.508Z,64.25
2024-03-04T18:22:47.113Z,68.25
2024-03-04T18:27:55.708Z,62.75
2024-03-04T18:33:01.987Z,63.50
2024-03-04T18:38:08.077Z,62.25
2024-03-04T18:43:16.717Z,62.75
2024-03-04T18:48:22.269Z,63.50
2024-03-04T18:53:28.016Z,62.00
2024-03-04T18:58:33.307Z,64.00
2024-03-04T19:03:41.474Z,60.50
2024-03-04T19:08:47.735Z,56.00
2024-03-04T19:13:53.371Z,64.50
2024-03-04T19:18:59.348Z,62.50
2024-03-04T19:24:04.835Z,55.75
2024-03-04T19:29:11.086Z,61.75
2024-03-04T19:34:16.756Z,60.25
2024-03-04T19:39:22.073Z,60.75
2024-03-04T19:44:27.738Z,57.50
2024-03-04T19:49:34.640Z,64.75
2024-03-04T19:54:41.432Z,59.75
2024-03-04T19:59:48.874Z,58.25
2024-03-04T20:04:55.270Z,58.00
2024-03-04T20:10:01.399Z,60.25
2024-03-04T20:15:08.975Z,62.00
2024-03-04T20:20:15.768Z,57.25
2024-03-04T20:25:21.637Z,60.00
2024-03-04T20:30:27.547Z,60.50
2024-03-04T20:35:32.931Z,57.25
2024-03-04T20:40:39.510Z,56.75
2024-03-04T20:45:45.581Z,56.50
2024-03-04T20:50:51.364Z,62.75
2024-03-04T20:55:56.693Z,63.00
2024-03-04T21:01:02.441Z,63.25
2024-03-04T21:06:13.420Z,63.50
2024-03-04T21:11:19.980Z,56.00
2024-03-04T21:16:29.391Z,56.75
2024-03-04T21:21:35.267Z,61.25
2024-03-04T21:26:41.505Z,61.50
2024-03-04T21:31:46.972Z,55.25
2024-03-04T21:36:52.261Z,62.25
2024-03-04T21:41:58.161Z,58.25
2024-03-04T21:47:03.831Z,57.00
2024-03-04T21:52:12.311Z,62.25
2024-03-04T21:57:17.912Z,55.00
2024-03-04T22:02:23.744Z,57.75
2024-03-04T22:07:29.603Z,52.75
2024-03-04T22:12:35.135Z,56.75
2024-03-04T22:17:40.900Z,54.50
2024-03-04T22:22:46.312Z,55.75
2024-03-04T22:27:52.251Z,56.25
2024-03-04T22:32:58.104Z,56.50
2024-03-04T22:38:04.159Z,53.00
2024-03-04T22:43:11.058Z,57.75
2024-03-04T22:48:16.349Z,61.50
2024-03-04T22:53:21.947Z,65.25
2024-03-04T22:58:27.717Z,63.50
2024-03-04T23:03:33.908Z,73.75
2024-03-04T23:08:39.817Z,65.00
2024-03-04T23:13:48.585Z,144.25
2024-03-04T23:18:54.833Z,90.75
2024-03-04T23:24:00.505Z,91.25
2024-03-04T23:29:07.770Z,82.25
2024-03-04T23:34:14.809Z,79.25
2024-03-04T23:39:22.436Z,77.50
2024-03-04T23:44:35.967Z,78.25
2024-03-04T23:49:42.043Z,74.25
2024-03-04T23:54:47.418Z,83.25
2024-03-04T23:59:53.656Z,75.75
